Flight Track Log - Related Links

Times and Time Zones

All times are in EDT time to prevent confusion due to time zone crossing. See the GJS3649 flight status page for this flight to view local times or setup timezone preferences in your user account.

Time Position Orientation Groundspeed Altitude Reporting Facility
EDT Latitude Longitude Course Direction KTS MPH feet Rate Location/Type
Mon 09:14:50 AM 41.9333 -87.8500 80° East 196 226 3,100  Level Chicago TRACON
Mon 09:15:50 AM 41.9667 -87.7667 62° Northeast 285 328 5,100 2,435 Climbing Chicago TRACON
Mon 09:17:40 AM 42.0700 -87.6172 47° Northeast 322 371 10,000 2,721 Climbing Chicago Center
Mon 09:18:42 AM 42.1119 -87.5072 63° Northeast 331 381 12,900 2,274 Climbing Chicago Center
Mon 09:19:44 AM 42.1564 -87.3869 63° Northeast 357 411 14,700 1,742 Climbing Chicago Center
Mon 09:20:00 AM 42.1485 -86.4623 80° East  Level FlightAware Approximate
Mon 09:20:46 AM 42.2186 -87.2253 62° Northeast 402 463 16,500  Level Chicago Center
Mon 09:21:48 AM 42.2722 -87.0803 63° Northeast 430 495 18,800 1,984 Climbing Chicago Center
Mon 09:22:50 AM 42.2847 -86.9186 84° East 438 504 20,600 1,645 Climbing Chicago Center
Mon 09:23:52 AM 42.2919 -86.7500 87° East 448 516 22,200 1,500 Climbing Chicago Center
Mon 09:24:54 AM 42.2975 -86.5778 87° East 465 535 23,700 1,403 Climbing Chicago Center
Mon 09:25:56 AM 42.3058 -86.3697 87° East 483 556 25,100 1,258 Climbing Chicago Center
Mon 09:26:58 AM 42.3122 -86.1839 87° East 496 571 26,300 1,113 Climbing Chicago Center
Mon 09:28:00 AM 42.3147 -85.9906 89° East 515 593 27,400 1,016 Climbing Chicago Center
Mon 09:29:02 AM 42.3108 -85.7942 91° East 526 605 28,400 968 Climbing Chicago Center
Mon 09:30:04 AM 42.3078 -85.5917 91° East 539 620 29,400 1,065 Climbing Chicago Center
Mon 09:31:06 AM 42.3053 -85.3450 91° East 550 633 30,600 1,065 Climbing Chicago Center
Mon 09:31:51 AM 42.3053 -85.1883 90° East 546 628 31,300 981 Climbing Cleveland Center
Mon 09:32:50 AM 42.3008 -84.9828 92° East 546 628 32,300 1,059 Climbing Cleveland Center
Mon 09:33:50 AM 42.2961 -84.7747 92° East 551 634 33,400 1,000 Climbing Cleveland Center
Mon 09:34:50 AM 42.2861 -84.5914 94° East 556 640 34,300 800 Climbing Cleveland Center
Mon 09:35:50 AM 42.2972 -84.3900 86° East 550 633 35,000 350 Climbing Cleveland Center
Mon 09:36:50 AM 42.3264 -84.1894 79° East 545 627 35,000  Level Cleveland Center
Mon 09:37:50 AM 42.3536 -83.9858 80° East 545 627 35,000  Level Cleveland Center
Mon 09:38:50 AM 42.3822 -83.7906 79° East 537 618 35,000  Level Cleveland Center
Mon 09:39:50 AM 42.4111 -83.5700 80° East 537 618 35,000  Level Cleveland Center
Mon 09:40:50 AM 42.4136 -83.3817 89° East 544 626 35,000  Level Cleveland Center
Mon 09:41:50 AM 42.4231 -83.1569 87° East 544 626 35,000  Level Cleveland Center
Mon 09:42:50 AM 42.4297 -82.9489 87° East 544 626 35,000  Level Cleveland Center
Mon 09:43:51 AM 42.4358 -82.7439 88° East 544 626 35,000  Level Cleveland Center
Mon 09:44:50 AM 42.4414 -82.5386 88° East 544 626 35,000  Level Cleveland Center
Mon 09:45:50 AM 42.4467 -82.3389 88° East 544 626 35,000  Level Cleveland Center
Mon 09:46:51 AM 42.4514 -82.1731 88° East 544 626 35,000  Level Cleveland Center
Mon 09:47:50 AM 42.4561 -81.9536 88° East 539 620 35,000  Level Cleveland Center
Mon 09:48:50 AM 42.4628 -81.7231 88° East 539 620 35,000  Level Cleveland Center
Mon 09:49:50 AM 42.4647 -81.5175 89° East 539 620 35,000  Level Cleveland Center
Mon 09:50:50 AM 42.4722 -81.3347 87° East 539 620 35,000  Level Cleveland Center
Mon 09:51:50 AM 42.4733 -81.1350 90° East 533 613 35,000  Level Cleveland Center
Mon 09:52:50 AM 42.4783 -80.9350 88° East 533 613 35,000  Level Cleveland Center
Mon 09:53:50 AM 42.4808 -80.7325 89° East 533 613 35,000  Level Cleveland Center
Mon 09:54:50 AM 42.4831 -80.5269 89° East 538 619 35,000  Level Cleveland Center
Mon 09:55:50 AM 42.4850 -80.3072 89° East 533 613 35,000  Level Cleveland Center
Mon 09:56:50 AM 42.4864 -80.1044 89° East 533 613 35,000  Level Cleveland Center
Mon 09:57:50 AM 42.4917 -79.9244 88° East 533 613 35,000  Level Cleveland Center
Mon 09:58:50 AM 42.4903 -79.7244 90° East 533 613 35,000  Level Cleveland Center
Mon 09:59:50 AM 42.4908 -79.5244 90° East 533 613 35,000  Level Cleveland Center
Mon 10:00:50 AM 42.4931 -79.3217 89° East 533 613 35,000  Level Cleveland Center
Mon 10:01:50 AM 42.5031 -79.1244 86° East 533 613 35,000  Level Cleveland Center
Mon 10:02:50 AM 42.5172 -78.9242 84° East 533 613 35,000  Level Cleveland Center
Mon 10:03:50 AM 42.5308 -78.7378 84° East 517 595 35,000  Level Cleveland Center
Mon 10:04:51 AM 42.5403 -78.5542 86° East 502 578 35,000  Level Cleveland Center
Mon 10:05:50 AM 42.5536 -78.3706 84° East 497 572 35,000  Level Cleveland Center
Mon 10:06:50 AM 42.5644 -78.1842 85° East 492 566 35,000  Level Cleveland Center
Mon 10:07:50 AM 42.5753 -78.0033 85° East 487 560 35,000  Level Cleveland Center
Mon 10:08:50 AM 42.5833 -77.8194 87° East 482 555 35,000  Level Cleveland Center
Mon 10:09:51 AM 42.5950 -77.6103 86° East 488 562 35,000  Level Cleveland Center
Mon 10:10:50 AM 42.6067 -77.4208 85° East 498 573 35,000  Level Cleveland Center
Mon 10:13:01 AM 42.6286 -77.0322 85° East 517 595 35,000  Level Boston Center
Mon 10:14:02 AM 42.6381 -76.8436 86° East 511 588 35,000  Level Boston Center
Mon 10:15:02 AM 42.6453 -76.6522 87° East 500 575 35,000  Level Boston Center
Mon 10:16:03 AM 42.6542 -76.4664 86° East 495 570 35,000  Level Boston Center
Mon 10:17:01 AM 42.6647 -76.2833 85° East 495 570 35,000  Level Boston Center
Mon 10:18:01 AM 42.6708 -76.1003 87° East 495 570 35,000  Level Boston Center
Mon 10:19:03 AM 42.6786 -75.9169 87° East 495 570 35,000  Level Boston Center
Mon 10:20:01 AM 42.6861 -75.7336 87° East 489 563 35,000  Level Boston Center
Mon 10:21:02 AM 42.6933 -75.5533 87° East 478 550 35,000  Level Boston Center
Mon 10:22:02 AM 42.7031 -75.3475 86° East 486 559 35,000  Level Boston Center
Mon 10:23:03 AM 42.7086 -75.2036 87° East 486 559 35,000  Level Boston Center
Mon 10:24:03 AM 42.7139 -74.9833 88° East 479 551 35,000  Level Boston Center
Mon 10:25:01 AM 42.7200 -74.7942 87° East 479 551 35,000  Level Boston Center
Mon 10:26:02 AM 42.7258 -74.5994 88° East 506 582 35,000  Level Boston Center
Mon 10:27:02 AM 42.7519 -74.4308 78° East 506 582 35,000  Level Boston Center
Mon 10:28:02 AM 42.7969 -74.2311 73° East 506 582 35,000  Level Boston Center
Mon 10:29:03 AM 42.8414 -74.0483 72° East 506 582 35,000  Level Boston Center
Mon 10:30:01 AM 42.8853 -73.8683 72° East 499 574 35,000  Level Boston Center
Mon 10:31:01 AM 42.9231 -73.6847 74° East 499 574 35,000  Level Boston Center
Mon 10:32:02 AM 42.9622 -73.5042 73° East 494 568 35,000  Level Boston Center
Mon 10:33:02 AM 43.0056 -73.3258 72° East 494 568 35,000  Level Boston Center
Mon 10:34:01 AM 43.0464 -73.1419 73° East 494 568 35,000 -756 Level Boston Center
Mon 10:35:01 AM 43.0786 -72.9744 75° East 499 574 33,500 -1,884 Descending Boston Center
Mon 10:36:02 AM 43.1189 -72.7956 73° East 493 567 31,200 -2,361 Descending Boston Center
Mon 10:37:03 AM 43.1653 -72.5967 72° East 493 567 28,700 -2,118 Descending Boston Center
Mon 10:38:01 AM 43.2028 -72.4231 73° East 493 567 27,000 -1,831 Descending Boston Center
Mon 10:39:01 AM 43.2381 -72.2519 74° East 474 545 25,100 -2,033 Descending Boston Center
Mon 10:40:02 AM 43.2711 -72.0867 75° East 461 531 22,900 -2,115 Descending Boston Center
Mon 10:41:03 AM 43.3058 -71.9236 74° East 450 518 20,800 -1,934 Descending Boston Center
Mon 10:42:03 AM 43.3322 -71.7808 76° East 432 497 19,000 -1,831 Descending Boston Center
Mon 10:43:01 AM 43.3686 -71.6175 73° East 409 471 17,200 -1,866 Descending Boston Center
Mon 10:44:02 AM 43.3967 -71.4828 74° East 404 465 15,300 -2,033 Descending Boston Center
Mon 10:45:02 AM 43.4286 -71.3222 75° East 396 456 13,100 -1,425 Descending Boston Center
Mon 10:47:03 AM 43.4883 -71.0578 73° East 379 436 11,000 -704 Descending Boston Center
Mon 10:48:01 AM 43.5281 -70.9081 70° East 379 436 11,000 -151 Level Boston Center
Mon 10:49:02 AM 43.5658 -70.7781 68° East 370 426 10,700 -992 Descending Boston Center
Mon 10:50:02 AM 43.5978 -70.6769 66° East 303 349 9,000 -1,700 Descending Boston Center
Mon 10:51:02 AM 43.6256 -70.5986 64° Northeast 252 290 7,300 -2,150 Descending Boston Center
Mon 10:52:02 AM 43.6475 -70.5292 66° East 203 234 4,700 -2,300 Descending Boston Center
Mon 10:53:02 AM 43.6544 -70.4628 82° East 183 211 2,700 -1,785 Descending Boston Center
Mon 10:54:03 AM 43.6511 -70.3914 94° East 170 196 1,100 4,185 Descending Boston Center
Mon 10:55:01 AM 43.6483 -70.3456 95° East 143 165 11,000 5,034 Climbing Boston Center
Mon 10:56:01 AM 43.6408 -70.2856 100° East 143 165 11,000  Level Boston Center
Mon 10:57:01 AM 43.6358 -70.2369 98° East 143 165 11,000  Level Boston Center
Mon 10:58:03 AM 43.6286 -70.1856 101° East 143 165 11,000  Level Boston Center
Mon 10:59:03 AM 43.6236 -70.1369 98° East 143 165 11,000  Level Boston Center
Mon 11:00:01 AM 43.6211 -70.1256 107° East 143 165 11,000  Level Boston Center
Mon 11:02:00 AM 43.6333 -70.3000 270° West  Level FlightAware Approximate
Mon 11:09:00 AM 43.6456 -70.3086 270° West  Level Estimated
Mon 11:10:00 AM 43.6456 -70.3086 270° West  Level Estimated
Mon 11:11:00 AM 43.6456 -70.3086 270° West  Level Estimated

Login

Don't have an account? Register now (free) for customized features, flight alerts, and more!